Time;durP1;ratioP1;P1;durP2;ratioP2;P2;SDS_P1;SDS_P2;PMS_P1;PMS_P2;Temp;Humidity;BMP_temperature;BMP_pressure;BME280_temperature;BME280_humidity;BME280_pressure;Samples;Min_cycle;Max_cycle;Signal;HPM_P1;HPM_P2
2022/01/27 00:02:41;;;;;;;52.62;27.35;;;;;;;0.86;47.75;100411.90;1675927;83;21011;-57
2022/01/27 00:05:06;;;;;;;50.10;25.50;;;;;;;0.75;47.99;100419.59;1684092;84;21120;-57
2022/01/27 00:07:19;;;;;;;55.03;28.02;;;;;;;0.82;48.08;100406.66;1686132;84;21195;-58
2022/01/27 00:10:02;;;;;;;51.10;26.35;;;;;;;0.71;48.28;100412.12;1687371;84;21023;-56
2022/01/27 00:12:18;;;;;;;47.55;25.43;;;;;;;0.88;48.25;100414.70;1686478;84;21106;-57
2022/01/27 00:14:46;;;;;;;50.33;25.52;;;;;;;0.77;48.49;100411.33;1688098;84;22085;-57
2022/01/27 00:17:14;;;;;;;56.70;28.47;;;;;;;0.79;48.68;100412.02;1687900;84;21551;-67
2022/01/27 00:19:42;;;;;;;53.75;26.82;;;;;;;0.91;48.68;100412.36;1671356;83;21244;-56
2022/01/27 00:22:10;;;;;;;55.92;28.00;;;;;;;1.08;48.63;100415.75;1671355;83;21027;-57
2022/01/27 00:24:37;;;;;;;48.63;25.30;;;;;;;1.02;48.36;100411.06;1693034;83;21053;-56
2022/01/27 00:27:05;;;;;;;45.23;24.25;;;;;;;1.18;48.24;100406.87;1693780;83;21188;-55
2022/01/27 00:29:32;;;;;;;45.45;22.58;;;;;;;1.12;48.25;100404.30;1693590;83;21008;-57
2022/01/27 00:31:59;;;;;;;46.58;21.82;;;;;;;1.02;48.52;100409.78;1693618;83;21803;-58
2022/01/27 00:34:25;;;;;;;50.10;22.90;;;;;;;1.00;48.77;100412.14;1692579;83;20896;-56
2022/01/27 00:36:52;;;;;;;41.55;23.00;;;;;;;1.07;48.82;100423.11;1693935;83;21042;-61
2022/01/27 00:39:18;;;;;;;45.20;22.82;;;;;;;0.82;48.99;100415.16;1693709;83;21015;-57
2022/01/27 00:41:44;;;;;;;42.40;21.85;;;;;;;1.01;48.91;100412.02;1694064;83;21031;-56
2022/01/27 00:44:11;;;;;;;44.65;21.90;;;;;;;1.36;48.68;100408.47;1693543;83;21206;-66
2022/01/27 00:46:38;;;;;;;43.70;22.80;;;;;;;1.18;48.51;100410.73;1693514;83;21201;-56
2022/01/27 00:49:04;;;;;;;45.17;21.33;;;;;;;1.06;48.90;100411.21;1693866;83;21064;-55
2022/01/27 00:51:36;;;;;;;40.90;22.37;;;;;;;1.05;48.99;100414.69;1693561;83;21142;-56
2022/01/27 00:54:19;;;;;;;44.05;22.48;;;;;;;1.06;49.05;100412.50;1693602;83;21572;-57
2022/01/27 00:57:04;;;;;;;46.45;24.25;;;;;;;1.17;48.65;100411.17;1691801;83;22243;-60
2022/01/27 00:59:36;;;;;;;40.33;21.07;;;;;;;1.37;48.07;100411.41;1691840;83;20995;-57
2022/01/27 01:02:13;;;;;;;44.48;22.05;;;;;;;1.49;47.76;100409.63;1691428;83;21008;-57
2022/01/27 01:04:28;;;;;;;48.55;21.50;;;;;;;1.52;47.78;100411.48;1696074;82;21680;-57
2022/01/27 01:06:52;;;;;;;43.42;21.17;;;;;;;1.46;47.93;100420.95;1709098;82;21538;-56
2022/01/27 01:14:42;;;;;;;38.48;20.12;;;;;;;2.01;47.64;100411.88;1707878;83;20930;-57
2022/01/27 01:17:15;;;;;;;39.78;20.95;;;;;;;1.81;47.99;100409.63;1690071;83;21512;-56
2022/01/27 01:33:09;;;;;;;34.13;18.73;;;;;;;1.85;48.72;100408.44;1694148;83;21067;-56
2022/01/27 01:35:48;;;;;;;37.93;20.65;;;;;;;2.05;48.45;100403.81;1692357;83;21830;-67
2022/01/27 01:38:20;;;;;;;42.48;22.02;;;;;;;2.19;48.23;100407.34;1693620;83;20939;-56
2022/01/27 01:40:49;;;;;;;36.95;20.23;;;;;;;2.19;48.23;100407.34;1693763;83;21079;-55
2022/01/27 01:43:16;;;;;;;36.75;20.10;;;;;;;2.11;48.44;100411.01;1693064;83;20976;-62
2022/01/27 01:45:43;;;;;;;37.48;19.30;;;;;;;2.17;48.31;100384.80;1665713;83;21003;-56
2022/01/27 01:48:09;;;;;;;36.40;19.02;;;;;;;2.34;48.03;100411.70;1695155;83;21096;-57
2022/01/27 01:50:36;;;;;;;39.00;21.30;;;;;;;2.28;48.29;100412.70;1706088;82;22241;-56
2022/01/27 01:53:03;;;;;;;40.83;20.85;;;;;;;2.29;48.11;100414.32;1718571;81;21100;-57
2022/01/27 01:55:33;;;;;;;41.70;22.17;;;;;;;2.29;47.92;100413.84;1717876;83;20851;-57
2022/01/27 01:58:00;;;;;;;38.23;20.85;;;;;;;2.21;47.85;100411.56;1719585;81;22377;-66
2022/01/27 02:00:27;;;;;;;37.73;21.07;;;;;;;2.49;47.56;100418.62;1719333;81;21073;-57
2022/01/27 02:02:54;;;;;;;54.13;26.23;;;;;;;2.57;47.43;100416.23;1718989;81;21094;-55
2022/01/27 02:05:25;;;;;;;45.83;24.57;;;;;;;2.49;47.11;100423.77;1670968;84;21010;-67
2022/01/27 02:08:33;;;;;;;47.20;25.40;;;;;;;2.45;46.78;100419.83;1724858;81;21161;-65
2022/01/27 02:19:20;;;;;;;39.33;21.73;;;;;;;1.90;47.42;100421.76;1723367;81;21144;-57
2022/01/27 02:21:50;;;;;;;37.58;20.65;;;;;;;1.98;47.62;100425.81;1725065;81;21572;-57
2022/01/27 02:24:18;;;;;;;35.17;19.10;;;;;;;1.77;47.60;100424.95;1724401;81;27504;-56
2022/01/27 02:26:44;;;;;;;41.00;22.20;;;;;;;1.85;48.14;100422.58;1724755;81;21167;-67
2022/01/27 02:29:11;;;;;;;49.27;23.90;;;;;;;1.85;48.14;100422.58;1724298;81;21089;-55
2022/01/27 02:31:37;;;;;;;45.28;22.80;;;;;;;1.80;47.81;100420.37;1725221;81;20991;-56
2022/01/27 02:34:06;;;;;;;46.58;23.57;;;;;;;1.91;47.34;100420.34;1724047;81;21089;-58
2022/01/27 02:36:33;;;;;;;43.58;22.87;;;;;;;1.88;47.30;100414.62;1724717;81;21128;-66
2022/01/27 02:39:02;;;;;;;41.77;22.13;;;;;;;2.10;47.02;100419.67;1724229;81;21136;-57
2022/01/27 02:41:31;;;;;;;51.45;24.82;;;;;;;2.00;47.17;100422.63;1724671;81;21489;-56
2022/01/27 02:43:58;;;;;;;50.83;25.57;;;;;;;1.97;47.05;100426.76;1690557;81;21058;-61
2022/01/27 02:46:36;;;;;;;45.78;24.07;;;;;;;1.76;47.13;100428.46;1724227;81;21089;-57
2022/01/27 02:49:02;;;;;;;50.23;24.72;;;;;;;1.72;47.23;100425.31;1722834;81;21074;-55
2022/01/27 02:51:29;;;;;;;43.87;22.87;;;;;;;1.90;46.91;100427.71;1724367;81;21912;-57
2022/01/27 02:53:57;;;;;;;40.78;23.42;;;;;;;1.91;46.73;100425.95;1723931;81;21048;-57
2022/01/27 02:56:24;;;;;;;43.87;24.72;;;;;;;1.73;46.88;100427.41;1724383;81;20943;-57
2022/01/27 02:58:50;;;;;;;43.65;23.45;;;;;;;1.73;46.84;100432.55;1724292;81;20983;-59
2022/01/27 03:01:20;;;;;;;47.40;24.47;;;;;;;1.80;46.69;100429.84;1724541;81;20998;-56
2022/01/27 03:03:47;;;;;;;48.95;26.48;;;;;;;1.64;46.88;100439.24;1724676;81;21106;-66
2022/01/27 03:06:14;;;;;;;53.35;24.87;;;;;;;1.72;46.90;100445.06;1673058;84;21028;-56
2022/01/27 03:08:41;;;;;;;45.60;23.73;;;;;;;1.58;47.02;100440.53;1659659;85;21106;-64
2022/01/27 03:11:14;;;;;;;45.28;25.05;;;;;;;1.81;46.98;100441.75;1668917;85;21158;-56
2022/01/27 03:13:41;;;;;;;49.45;26.15;;;;;;;2.01;46.42;100436.30;1667776;85;21236;-63
2022/01/27 03:16:10;;;;;;;49.15;25.57;;;;;;;2.09;46.06;100432.19;1668470;85;21146;-56
2022/01/27 03:18:36;;;;;;;47.08;24.20;;;;;;;2.13;45.79;100420.72;1691019;84;21550;-66
2022/01/27 03:21:04;;;;;;;47.90;24.70;;;;;;;2.13;45.79;100420.72;1691482;84;22473;-56
2022/01/27 03:23:33;;;;;;;48.50;23.90;;;;;;;1.78;46.38;100425.28;1691587;83;21036;-56
2022/01/27 03:25:59;;;;;;;51.08;24.30;;;;;;;2.21;45.88;100423.95;1690713;84;20957;-58
2022/01/27 03:28:28;;;;;;;43.95;24.02;;;;;;;2.27;45.52;100420.42;1691487;84;21164;-58
2022/01/27 03:30:54;;;;;;;46.25;24.40;;;;;;;2.22;45.44;100420.42;1690831;84;21016;-59
2022/01/27 03:33:20;;;;;;;47.55;24.27;;;;;;;2.13;45.40;100425.86;1691605;84;21243;-67
2022/01/27 03:35:47;;;;;;;42.45;23.18;;;;;;;2.21;45.40;100420.56;1691302;84;20936;-68
2022/01/27 03:38:13;;;;;;;41.00;21.55;;;;;;;2.30;45.40;100420.61;1691253;84;21292;-58
2022/01/27 03:40:39;;;;;;;40.45;21.45;;;;;;;2.54;45.24;100420.81;1691501;84;21150;-57
2022/01/27 03:43:09;;;;;;;45.45;24.00;;;;;;;2.38;45.48;100423.84;1690771;84;20991;-61
2022/01/27 03:45:36;;;;;;;45.70;23.15;;;;;;;2.21;45.90;100426.99;1691612;84;21137;-57
2022/01/27 03:48:03;;;;;;;47.27;24.27;;;;;;;2.21;45.90;100426.99;1687927;84;21023;-56
2022/01/27 03:50:29;;;;;;;47.80;24.25;;;;;;;2.32;45.87;100426.94;1691546;84;21124;-57
2022/01/27 03:52:56;;;;;;;46.02;23.12;;;;;;;2.38;45.66;100423.84;1691118;83;21216;-65
2022/01/27 03:55:22;;;;;;;41.10;22.60;;;;;;;1.90;46.35;100419.19;1688413;84;20984;-59
2022/01/27 03:57:49;;;;;;;44.10;22.77;;;;;;;1.85;46.56;100431.57;1690736;84;21015;-68
2022/01/27 04:00:16;;;;;;;41.77;21.75;;;;;;;1.95;46.51;100430.72;1696393;79;22496;-62
2022/01/27 04:03:00;;;;;;;43.83;21.33;;;;;;;2.09;46.35;100427.52;1754750;80;21069;-58
2022/01/27 04:05:22;;;;;;;41.02;21.05;;;;;;;2.17;46.20;100427.23;1753128;80;21392;-57
2022/01/27 04:07:49;;;;;;;43.30;22.40;;;;;;;2.10;46.16;100437.67;1753765;80;21563;-58
2022/01/27 04:10:16;;;;;;;49.08;24.40;;;;;;;2.13;46.07;100437.43;1753300;81;22157;-58
2022/01/27 04:12:43;;;;;;;43.73;23.50;;;;;;;1.99;46.19;100438.19;1731641;81;21548;-67
2022/01/27 04:15:10;;;;;;;43.02;23.50;;;;;;;1.99;46.25;100436.43;1754663;80;21064;-57
2022/01/27 04:17:37;;;;;;;44.18;23.73;;;;;;;2.20;46.08;100427.47;1756794;80;21158;-58
2022/01/27 04:20:04;;;;;;;44.53;22.10;;;;;;;2.15;45.95;100439.39;1731535;81;21157;-58
2022/01/27 04:22:32;;;;;;;46.23;22.58;;;;;;;2.23;46.46;100428.95;1753182;81;21108;-58
2022/01/27 04:24:58;;;;;;;41.00;22.77;;;;;;;2.23;46.46;100428.95;1755763;80;21634;-56
2022/01/27 04:27:30;;;;;;;43.60;22.13;;;;;;;2.29;46.08;100434.42;1756845;80;21060;-58
2022/01/27 04:29:53;;;;;;;42.70;23.57;;;;;;;2.14;46.30;100443.38;1753822;80;21192;-57
2022/01/27 04:32:25;;;;;;;48.30;24.80;;;;;;;2.19;46.29;100440.77;1732285;81;21002;-57
2022/01/27 04:34:49;;;;;;;49.35;24.98;;;;;;;2.22;46.32;100455.15;1699594;82;21011;-63
2022/01/27 04:37:20;;;;;;;51.88;24.40;;;;;;;2.14;46.08;100457.05;1700486;84;21105;-57
2022/01/27 04:39:57;;;;;;;51.63;24.80;;;;;;;2.16;46.27;100455.66;1754103;80;21026;-67
2022/01/27 04:42:23;;;;;;;56.63;26.45;;;;;;;2.13;46.53;100462.33;1751752;81;21111;-57
2022/01/27 04:44:52;;;;;;;52.05;27.02;;;;;;;2.30;46.25;100468.67;1752666;80;21537;-67
2022/01/27 04:47:23;;;;;;;58.95;28.30;;;;;;;2.30;46.25;100468.67;1753549;80;21442;-56
2022/01/27 04:49:44;;;;;;;;;;;;;;;2.29;46.19;100474.77;1755647;80;21032;-60
2022/01/27 04:52:11;;;;;;;54.83;25.88;;;;;;;2.38;46.13;100471.44;1755787;80;20264;-57
2022/01/27 04:54:51;;;;;;;54.63;27.40;;;;;;;2.41;46.10;100480.20;1754416;80;21119;-63
2022/01/27 04:57:07;;;;;;;55.35;26.42;;;;;;;2.62;45.73;100477.16;1751325;80;21057;-57
2022/01/27 04:59:39;;;;;;;56.15;29.07;;;;;;;2.51;45.86;100481.09;1753227;81;20986;-57
2022/01/27 05:02:09;;;;;;;52.62;27.30;;;;;;;2.61;45.50;100481.13;1751502;81;20933;-57
2022/01/27 05:04:38;;;;;;;47.15;23.60;;;;;;;2.76;45.35;100482.92;1759798;79;20910;-68
2022/01/27 05:07:01;;;;;;;49.38;24.87;;;;;;;2.77;45.17;100483.28;1760486;79;21092;-68
2022/01/27 05:09:28;;;;;;;45.52;24.43;;;;;;;2.71;45.17;100483.78;1760722;79;21404;-57
2022/01/27 05:11:59;;;;;;;46.37;23.50;;;;;;;2.67;45.31;100481.45;1732810;82;21018;-57
2022/01/27 05:14:24;;;;;;;50.45;26.07;;;;;;;2.58;45.49;100480.94;1704500;82;21089;-66
2022/01/27 05:16:53;;;;;;;46.50;24.23;;;;;;;2.53;45.60;100484.81;1702326;84;21882;-57
2022/01/27 05:19:20;;;;;;;45.65;24.25;;;;;;;2.39;45.85;100493.20;1763752;79;21156;-58
2022/01/27 05:21:48;;;;;;;45.80;23.07;;;;;;;2.34;45.90;100486.77;1763628;79;21080;-63
2022/01/27 05:24:16;;;;;;;53.70;27.20;;;;;;;2.36;45.88;100496.01;1735098;81;21144;-69
2022/01/27 05:26:43;;;;;;;54.20;26.45;;;;;;;2.29;45.96;100492.30;1704900;82;21019;-58
2022/01/27 05:29:09;;;;;;;46.60;23.77;;;;;;;2.66;45.46;100494.45;1762158;79;21676;-70
2022/01/27 05:31:37;;;;;;;51.18;25.15;;;;;;;2.66;45.46;100494.45;1735467;81;21760;-59
2022/01/27 05:34:05;;;;;;;54.08;26.07;;;;;;;2.45;45.83;100500.88;1762634;79;21000;-59
2022/01/27 05:36:33;;;;;;;68.67;29.92;;;;;;;2.42;46.01;100499.38;1734736;81;21082;-58
2022/01/27 05:39:01;;;;;;;61.35;27.93;;;;;;;2.57;45.99;100504.20;1764047;79;21070;-59
2022/01/27 05:41:28;;;;;;;75.75;31.85;;;;;;;2.52;45.96;100503.77;1758986;81;21518;-58
2022/01/27 05:43:54;;;;;;;71.05;30.30;;;;;;;2.46;46.23;100499.92;1763540;79;21133;-59
2022/01/27 05:46:21;;;;;;;60.83;28.47;;;;;;;2.48;46.30;100494.20;1757622;79;21070;-59
2022/01/27 05:48:47;;;;;;;72.72;29.80;;;;;;;2.67;46.20;100496.08;1732162;81;21104;-60
2022/01/27 05:51:14;;;;;;;59.25;26.17;;;;;;;2.74;46.01;100497.69;1760454;79;21503;-65
2022/01/27 05:53:41;;;;;;;56.98;28.23;;;;;;;2.92;45.88;100492.31;1734891;81;21578;-61
2022/01/27 05:56:07;;;;;;;63.60;29.00;;;;;;;2.83;45.95;100491.77;1705177;82;21346;-61
2022/01/27 05:58:34;;;;;;;51.80;24.75;;;;;;;2.83;46.06;100498.20;1701808;84;20935;-60
2022/01/27 06:01:01;;;;;;;43.73;23.12;;;;;;;2.86;45.99;100496.19;1762855;79;22254;-60
2022/01/27 06:03:27;;;;;;;43.05;21.45;;;;;;;2.78;46.08;100497.30;1773939;79;21018;-59
2022/01/27 06:05:54;;;;;;;47.55;23.18;;;;;;;2.78;46.05;100494.73;1774416;79;21587;-58
2022/01/27 06:08:20;;;;;;;48.60;25.00;;;;;;;2.85;46.07;100495.86;1767026;79;21161;-73
2022/01/27 06:10:46;;;;;;;46.42;24.95;;;;;;;2.96;45.89;100498.02;1778947;79;21017;-60
2022/01/27 06:13:13;;;;;;;42.65;22.82;;;;;;;3.06;45.78;100500.96;1739584;81;21469;-58
2022/01/27 06:15:41;;;;;;;42.45;22.98;;;;;;;3.22;45.79;100494.08;1747917;81;20931;-61
2022/01/27 06:18:09;;;;;;;61.20;35.95;;;;;;;2.85;46.06;100495.05;1724986;82;21019;-59
2022/01/27 06:20:37;;;;;;;59.48;35.03;;;;;;;3.19;46.20;100500.77;1756260;79;21239;-60
2022/01/27 06:23:04;;;;;;;73.80;49.18;;;;;;;3.22;46.10;100499.67;1760646;81;21036;-60
2022/01/27 06:25:30;;;;;;;79.50;54.25;;;;;;;3.38;46.02;100494.87;1758332;81;21078;-61
2022/01/27 06:27:58;;;;;;;63.68;36.88;;;;;;;3.62;45.77;100488.89;1761752;80;21072;-67
2022/01/27 06:30:24;;;;;;;51.30;30.12;;;;;;;3.73;45.51;100489.73;1759296;79;22125;-60
2022/01/27 06:32:51;;;;;;;68.85;40.28;;;;;;;4.02;44.71;100488.50;1760928;79;21186;-59
2022/01/27 06:35:17;;;;;;;46.23;27.32;;;;;;;3.73;45.85;100487.16;1760464;79;20871;-58
2022/01/27 06:37:45;;;;;;;44.98;25.20;;;;;;;3.84;45.63;100488.33;1761322;79;21100;-58
2022/01/27 06:40:14;;;;;;;43.95;24.15;;;;;;;4.22;44.75;100486.73;1759428;79;20982;-68
2022/01/27 06:42:43;;;;;;;57.38;28.50;;;;;;;4.00;45.11;100490.38;1760585;79;21096;-66
2022/01/27 06:45:10;;;;;;;60.73;34.00;;;;;;;4.05;45.03;100488.20;1760954;79;21129;-59
2022/01/27 06:47:37;;;;;;;54.33;30.90;;;;;;;4.24;44.78;100486.09;1760725;79;21155;-59
2022/01/27 06:50:05;;;;;;;53.17;28.57;;;;;;;4.46;44.45;100481.95;1761352;79;21069;-58
2022/01/27 06:52:31;;;;;;;62.73;32.30;;;;;;;4.50;44.21;100481.20;1760204;79;21100;-58
2022/01/27 06:54:58;;;;;;;100.05;47.30;;;;;;;4.39;44.33;100481.70;1761427;79;21041;-59
2022/01/27 06:57:25;;;;;;;66.40;35.83;;;;;;;4.22;44.05;100485.44;1760433;79;21143;-58
2022/01/27 06:59:52;;;;;;;87.55;42.58;;;;;;;4.42;44.11;100483.66;1761179;79;20969;-60
2022/01/27 07:02:18;;;;;;;63.52;35.03;;;;;;;4.54;44.14;100482.06;1762022;79;21066;-70
2022/01/27 07:04:45;;;;;;;69.58;34.10;;;;;;;4.61;43.71;100480.56;1764220;79;20981;-59
2022/01/27 07:07:12;;;;;;;61.55;33.10;;;;;;;4.82;43.89;100477.00;1764502;79;21508;-59
2022/01/27 07:09:41;;;;;;;57.95;31.48;;;;;;;5.09;43.60;100479.62;1762327;79;22152;-58
2022/01/27 07:12:09;;;;;;;69.53;35.85;;;;;;;5.12;43.43;100478.53;1761302;79;20961;-69
2022/01/27 07:14:36;;;;;;;76.17;40.88;;;;;;;5.31;43.18;100478.45;1764513;79;22515;-62
2022/01/27 07:17:04;;;;;;;56.65;31.23;;;;;;;5.46;43.22;100476.20;1762994;79;21570;-59
2022/01/27 07:19:31;;;;;;;60.45;33.18;;;;;;;5.45;43.18;100471.97;1762430;79;21053;-62
2022/01/27 07:21:58;;;;;;;65.45;34.23;;;;;;;5.55;43.12;100475.31;1764395;79;21816;-59
2022/01/27 07:24:25;;;;;;;48.08;26.30;;;;;;;5.41;43.38;100471.92;1731054;81;21021;-64
2022/01/27 07:26:51;;;;;;;46.35;27.35;;;;;;;5.57;43.45;100474.71;1763149;79;21186;-64
2022/01/27 07:29:18;;;;;;;46.85;28.17;;;;;;;5.70;43.12;100480.00;1763496;79;21880;-71
2022/01/27 07:31:44;;;;;;;48.45;27.30;;;;;;;5.96;42.87;100477.06;1766089;79;21467;-62
2022/01/27 07:34:11;;;;;;;48.13;27.42;;;;;;;6.23;42.54;100477.95;1762990;79;21187;-66
2022/01/27 07:36:38;;;;;;;44.42;25.15;;;;;;;6.33;41.96;100478.69;1765957;79;20947;-67
2022/01/27 07:39:05;;;;;;;41.75;24.63;;;;;;;6.44;41.57;100480.20;1764514;79;21092;-60
2022/01/27 07:41:32;;;;;;;52.70;31.37;;;;;;;6.66;41.45;100475.02;1764257;79;21441;-61
2022/01/27 07:43:58;;;;;;;40.55;24.90;;;;;;;6.76;41.21;100471.85;1765082;79;21092;-59
2022/01/27 07:46:25;;;;;;;47.40;26.85;;;;;;;6.78;41.16;100468.61;1762766;79;22291;-63
2022/01/27 07:48:52;;;;;;;74.12;36.95;;;;;;;7.12;40.60;100474.30;1763580;79;21645;-59
2022/01/27 07:51:18;;;;;;;61.48;32.80;;;;;;;7.39;40.22;100469.41;1760647;79;22345;-59
2022/01/27 07:53:46;;;;;;;46.18;27.22;;;;;;;7.54;40.09;100469.13;1763272;79;21086;-66
2022/01/27 07:56:12;;;;;;;47.35;28.95;;;;;;;7.47;39.94;100475.91;1761391;79;21073;-63
2022/01/27 07:58:43;;;;;;;66.10;34.45;;;;;;;7.24;40.05;100479.07;1759425;79;21203;-68
2022/01/27 08:01:09;;;;;;;48.23;27.27;;;;;;;7.37;39.99;100473.92;1766240;79;21100;-63
2022/01/27 08:03:37;;;;;;;66.30;31.52;;;;;;;7.37;39.84;100481.70;1725450;81;21587;-61
2022/01/27 08:06:05;;;;;;;64.22;32.42;;;;;;;7.58;39.65;100479.52;1727350;81;21008;-63
2022/01/27 08:08:33;;;;;;;52.43;27.73;;;;;;;7.34;39.92;100485.41;1754837;79;21627;-70
2022/01/27 08:11:00;;;;;;;62.73;33.15;;;;;;;7.26;40.28;100484.09;1757833;79;21148;-60
2022/01/27 08:13:27;;;;;;;58.35;29.92;;;;;;;7.49;40.00;100481.25;1758372;80;20935;-61
2022/01/27 08:15:54;;;;;;;47.98;27.80;;;;;;;7.73;39.63;100483.12;1757028;80;21462;-64
2022/01/27 08:18:21;;;;;;;50.73;27.98;;;;;;;7.62;39.49;100489.09;1756943;79;21133;-63
2022/01/27 08:20:49;;;;;;;47.62;26.50;;;;;;;7.64;39.79;100493.63;1761302;79;21062;-58
2022/01/27 08:23:17;;;;;;;49.83;26.95;;;;;;;7.79;39.30;100495.45;1759324;79;21521;-59
2022/01/27 08:25:49;;;;;;;58.98;31.07;;;;;;;7.99;39.13;100495.16;1757826;79;21524;-61
2022/01/27 08:28:25;;;;;;;49.25;29.40;;;;;;;7.96;38.79;100492.91;1756129;80;20963;-70
2022/01/27 08:30:48;;;;;;;38.75;22.82;;;;;;;7.99;38.83;100492.09;1759821;79;21837;-60
2022/01/27 08:33:16;;;;;;;39.78;23.62;;;;;;;7.78;39.35;100494.32;1760517;79;21047;-59
2022/01/27 08:35:41;;;;;;;47.35;28.42;;;;;;;7.79;39.65;100494.64;1766168;79;21208;-64
2022/01/27 08:38:07;;;;;;;39.40;25.35;;;;;;;7.93;39.70;100491.92;1764263;79;21041;-66
2022/01/27 08:40:35;;;;;;;33.42;20.10;;;;;;;7.45;40.05;100498.10;1765219;79;21108;-61
2022/01/27 08:43:07;;;;;;;32.93;21.05;;;;;;;7.05;41.11;100490.48;1768295;79;21571;-62
2022/01/27 08:45:34;;;;;;;33.10;19.55;;;;;;;7.16;40.97;100493.76;1762795;79;20951;-63
2022/01/27 08:48:01;;;;;;;30.80;19.45;;;;;;;7.22;40.79;100499.14;1764010;79;21122;-69
2022/01/27 08:50:29;;;;;;;34.45;18.98;;;;;;;6.93;41.39;100489.59;1724139;81;21486;-59
2022/01/27 08:52:56;;;;;;;48.05;25.92;;;;;;;7.19;41.15;100483.08;1725052;81;21078;-60
2022/01/27 08:55:23;;;;;;;59.42;32.93;;;;;;;7.40;40.74;100484.00;1724735;81;20983;-61
2022/01/27 08:57:50;;;;;;;39.05;24.47;;;;;;;7.58;40.35;100479.98;1723828;81;21037;-65
2022/01/27 09:00:19;;;;;;;39.92;24.60;;;;;;;7.79;40.09;100475.17;1724822;81;21145;-61
2022/01/27 09:02:46;;;;;;;38.83;23.73;;;;;;;7.68;40.27;100480.17;1724893;80;21038;-61
2022/01/27 09:05:13;;;;;;;38.90;24.35;;;;;;;7.93;39.95;100475.86;1724553;80;21138;-61
2022/01/27 09:07:41;;;;;;;31.75;20.40;;;;;;;8.07;39.69;100469.69;1722773;81;21329;-65
2022/01/27 09:10:09;;;;;;;34.80;20.97;;;;;;;8.00;39.42;100472.95;1720807;81;20957;-71
2022/01/27 09:12:36;;;;;;;31.65;20.12;;;;;;;7.77;39.61;100475.34;1724712;80;22328;-61
2022/01/27 09:15:05;;;;;;;32.10;20.02;;;;;;;7.90;39.48;100472.27;1693234;82;21000;-59
2022/01/27 09:17:39;;;;;;;34.73;21.00;;;;;;;7.91;39.48;100468.70;1715773;82;21592;-59
2022/01/27 09:20:04;;;;;;;33.90;21.48;;;;;;;8.12;39.25;100463.05;1694853;82;21551;-73
2022/01/27 09:22:35;;;;;;;32.70;19.98;;;;;;;8.27;38.93;100461.43;1723608;80;21149;-60
2022/01/27 09:25:09;;;;;;;30.57;18.20;;;;;;;8.46;38.99;100459.51;1724947;80;21296;-60
2022/01/27 09:27:30;;;;;;;31.17;17.87;;;;;;;8.48;38.83;100462.73;1722997;81;21678;-60
2022/01/27 09:29:57;;;;;;;29.90;17.55;;;;;;;8.19;38.91;100456.24;1707548;82;21073;-77
2022/01/27 09:32:26;;;;;;;30.37;18.02;;;;;;;8.38;38.97;100459.03;1691403;82;21200;-60
2022/01/27 09:34:53;;;;;;;30.85;22.13;;;;;;;8.22;38.87;100462.88;1724305;81;20999;-61
2022/01/27 09:37:22;;;;;;;32.15;22.62;;;;;;;8.31;38.37;100462.41;1723505;81;21134;-61
2022/01/27 09:39:49;;;;;;;35.83;24.67;;;;;;;8.24;38.44;100468.24;1753307;81;20917;-65
2022/01/27 09:42:17;;;;;;;25.00;16.55;;;;;;;8.10;38.54;100466.77;1758771;79;21012;-62
2022/01/27 09:44:52;;;;;;;30.17;18.27;;;;;;;8.09;38.48;100465.16;1725135;81;20974;-70
2022/01/27 09:47:16;;;;;;;25.85;15.95;;;;;;;7.96;38.91;100463.86;1724577;81;21022;-67
2022/01/27 09:49:51;;;;;;;26.50;15.72;;;;;;;8.15;38.61;100459.33;1723337;81;21728;-61
2022/01/27 09:52:12;;;;;;;26.85;17.05;;;;;;;8.14;38.61;100460.28;1727424;81;21312;-63
2022/01/27 09:54:39;;;;;;;34.33;20.55;;;;;;;8.10;38.48;100462.88;1723166;81;21413;-59
2022/01/27 09:57:06;;;;;;;26.48;15.88;;;;;;;8.02;38.61;100461.90;1699816;82;21002;-61
2022/01/27 09:59:33;;;;;;;24.92;16.40;;;;;;;7.95;38.60;100464.00;1714726;82;21049;-66
2022/01/27 10:02:08;;;;;;;25.85;16.60;;;;;;;7.95;38.73;100467.41;1760280;79;21598;-75
2022/01/27 10:04:50;;;;;;;21.93;14.78;;;;;;;7.77;39.05;100470.64;1735631;81;21118;-60
2022/01/27 10:07:23;;;;;;;24.50;15.60;;;;;;;7.79;39.11;100473.39;1740189;81;20948;-62
2022/01/27 10:10:13;;;;;;;22.10;13.98;;;;;;;7.91;38.86;100472.59;1743614;81;21133;-72
2022/01/27 10:12:47;;;;;;;21.20;14.10;;;;;;;8.00;38.72;100476.03;1746997;81;21072;-62
2022/01/27 10:15:18;;;;;;;19.40;12.43;;;;;;;7.77;38.37;100475.84;1744224;81;22452;-61
2022/01/27 10:18:06;;;;;;;21.23;14.40;;;;;;;7.89;38.35;100481.05;1743311;81;21430;-60
2022/01/27 10:20:35;;;;;;;19.62;13.45;;;;;;;7.85;38.24;100478.44;1738980;81;21022;-73
2022/01/27 10:23:28;;;;;;;21.25;13.40;;;;;;;7.82;38.50;100474.86;1737796;81;21140;-73
2022/01/27 10:25:59;;;;;;;22.27;13.45;;;;;;;7.80;38.77;100471.60;1744551;81;21169;-70
2022/01/27 10:31:05;;;;;;;20.57;13.68;;;;;;;7.79;39.11;100463.50;1743607;81;21061;-59
2022/01/27 10:33:54;;;;;;;20.70;13.43;;;;;;;7.89;38.84;100457.68;1749883;81;20987;-60
2022/01/27 10:36:39;;;;;;;20.97;13.72;;;;;;;8.07;38.59;100454.11;1748682;81;21077;-64
2022/01/27 10:39:14;;;;;;;26.70;16.60;;;;;;;7.92;38.44;100450.87;1743693;81;20915;-59
2022/01/27 10:42:05;;;;;;;22.07;14.98;;;;;;;7.88;38.63;100449.58;1748395;81;21608;-60
2022/01/27 10:44:43;;;;;;;24.43;15.75;;;;;;;8.20;38.26;100446.66;1715661;81;22418;-64
2022/01/27 10:47:19;;;;;;;25.10;16.35;;;;;;;7.69;38.93;100449.39;1718440;81;21072;-61
2022/01/27 10:49:51;;;;;;;23.85;14.93;;;;;;;7.73;38.78;100445.50;1748618;81;20979;-62
2022/01/27 10:53:03;;;;;;;24.63;15.53;;;;;;;7.92;39.08;100437.09;1752075;81;21092;-62
2022/01/27 10:55:00;;;;;;;23.83;15.50;;;;;;;7.97;38.72;100438.22;1732846;81;21153;-70
2022/01/27 10:57:27;;;;;;;21.82;13.08;;;;;;;8.15;38.17;100441.16;1751219;81;21033;-59
2022/01/27 11:00:15;;;;;;;22.70;14.68;;;;;;;8.00;38.10;100436.60;1750604;81;21082;-69
2022/01/27 11:02:59;;;;;;;23.32;14.63;;;;;;;8.04;38.05;100433.20;1751762;81;22428;-70
2022/01/27 11:05:29;;;;;;;22.48;14.70;;;;;;;8.31;37.94;100428.16;1761383;79;21597;-61
2022/01/27 11:07:58;;;;;;;;;;;;;;;8.36;38.14;100431.06;1762896;79;21122;-73
2022/01/27 11:10:25;;;;;;;23.32;15.05;;;;;;;8.14;38.42;100434.31;1760703;79;20153;-63
2022/01/27 11:12:53;;;;;;;24.72;15.38;;;;;;;8.11;38.23;100427.69;1761016;79;20918;-60
2022/01/27 11:15:20;;;;;;;21.90;13.43;;;;;;;7.91;38.41;100431.55;1760154;79;21508;-60
2022/01/27 11:17:49;;;;;;;20.80;13.10;;;;;;;8.22;38.15;100431.25;1759279;79;21017;-74
2022/01/27 11:20:34;;;;;;;21.82;13.45;;;;;;;8.31;37.69;100428.16;1761040;79;21141;-60
2022/01/27 11:28:04;;;;;;;21.90;13.13;;;;;;;8.12;37.19;100422.00;1761230;79;21186;-62
2022/01/27 11:31:07;;;;;;;19.37;12.58;;;;;;;7.99;37.37;100418.11;1760136;79;21007;-66
2022/01/27 11:33:35;;;;;;;21.55;14.13;;;;;;;7.85;37.68;100418.75;1760455;79;21156;-61
2022/01/27 11:36:14;;;;;;;21.68;13.15;;;;;;;7.71;38.21;100417.59;1760476;79;21534;-66
2022/01/27 11:38:43;;;;;;;23.90;13.93;;;;;;;7.61;38.30;100416.91;1759556;79;21116;-67
2022/01/27 11:41:47;;;;;;;24.40;15.65;;;;;;;7.79;38.15;100423.27;1759875;79;21021;-63
2022/01/27 11:44:33;;;;;;;28.17;17.48;;;;;;;7.87;38.25;100421.98;1755878;79;21044;-71
2022/01/27 11:47:17;;;;;;;28.98;18.48;;;;;;;7.74;38.53;100425.55;1760673;79;21060;-61
2022/01/27 11:50:02;;;;;;;29.12;18.15;;;;;;;7.51;38.61;100425.34;1760085;79;22491;-76
2022/01/27 11:52:30;;;;;;;29.63;17.70;;;;;;;7.52;38.73;100427.77;1760543;79;21036;-62
2022/01/27 11:55:29;;;;;;;29.57;17.50;;;;;;;7.15;38.95;100429.92;1759775;79;21024;-69
2022/01/27 11:58:04;;;;;;;28.30;18.07;;;;;;;6.99;39.41;100441.84;1760994;79;21036;-65
2022/01/27 12:00:31;;;;;;;27.20;16.65;;;;;;;6.98;39.45;100441.53;1761487;79;21118;-63
2022/01/27 12:03:09;;;;;;;29.65;19.05;;;;;;;7.09;39.65;100446.12;1760043;79;21092;-62